createdAt,value
2022-09-21T00:01:50.000Z,996.32
2022-09-21T00:06:45.000Z,996.28
2022-09-21T00:11:40.000Z,996.28
2022-09-21T00:16:34.000Z,996.32
2022-09-21T00:21:27.000Z,996.35
2022-09-21T00:26:21.000Z,996.24
2022-09-21T00:31:16.000Z,996.31
2022-09-21T00:36:09.000Z,996.27
2022-09-21T00:41:04.000Z,996.29
2022-09-21T00:45:58.000Z,996.38
2022-09-21T00:50:52.000Z,996.37
2022-09-21T00:55:47.000Z,996.44
2022-09-21T01:00:39.000Z,996.47
2022-09-21T01:05:34.000Z,996.42
2022-09-21T01:10:28.000Z,996.50
2022-09-21T01:15:22.000Z,996.50
2022-09-21T01:20:17.000Z,996.49
2022-09-21T01:25:11.000Z,996.45
2022-09-21T01:30:05.000Z,996.45
2022-09-21T01:34:59.000Z,996.47
2022-09-21T01:39:53.000Z,996.49
2022-09-21T01:44:48.000Z,996.49
2022-09-21T01:49:42.000Z,996.53
2022-09-21T01:54:37.000Z,996.50
2022-09-21T01:59:31.000Z,996.52
2022-09-21T02:04:29.000Z,996.58
2022-09-21T02:09:19.000Z,996.56
2022-09-21T02:14:14.000Z,996.56
2022-09-21T02:19:08.000Z,996.54
2022-09-21T02:24:02.000Z,996.56
2022-09-21T02:28:57.000Z,996.48
2022-09-21T02:33:51.000Z,996.48
2022-09-21T02:38:46.000Z,996.52
2022-09-21T02:43:40.000Z,996.52
2022-09-21T02:48:35.000Z,996.54
2022-09-21T02:53:29.000Z,996.49
2022-09-21T02:58:23.000Z,996.45
2022-09-21T03:03:17.000Z,996.53
2022-09-21T03:08:11.000Z,996.55
2022-09-21T03:13:05.000Z,996.52
2022-09-21T03:18:00.000Z,996.57
2022-09-21T03:22:54.000Z,996.60
2022-09-21T03:27:48.000Z,996.56
2022-09-21T03:32:40.000Z,996.59
2022-09-21T03:37:35.000Z,996.53
2022-09-21T03:42:29.000Z,996.52
2022-09-21T03:47:24.000Z,996.58
2022-09-21T03:52:18.000Z,996.58
2022-09-21T03:57:12.000Z,996.60
2022-09-21T04:02:07.000Z,996.65
2022-09-21T04:07:01.000Z,996.62
2022-09-21T04:11:55.000Z,996.69
2022-09-21T04:16:49.000Z,996.70
2022-09-21T04:21:44.000Z,996.65
2022-09-21T04:26:38.000Z,996.68
2022-09-21T04:31:33.000Z,996.75
2022-09-21T04:36:27.000Z,996.76
2022-09-21T04:41:21.000Z,996.78
2022-09-21T04:46:16.000Z,996.89
2022-09-21T05:00:53.000Z,996.94
2022-09-21T05:05:48.000Z,996.97
2022-09-21T05:20:23.000Z,997.13
2022-09-21T05:25:17.000Z,997.20
2022-09-21T05:39:55.000Z,997.22
2022-09-21T05:54:32.000Z,997.38
2022-09-21T05:59:27.000Z,997.41
2022-09-21T06:04:22.000Z,997.36
2022-09-21T06:09:16.000Z,997.50
2022-09-21T06:14:11.000Z,997.48
2022-09-21T06:19:06.000Z,997.50
2022-09-21T06:24:00.000Z,997.49
2022-09-21T06:28:54.000Z,997.53
2022-09-21T06:33:49.000Z,997.41
2022-09-21T06:38:43.000Z,997.43
2022-09-21T06:43:38.000Z,997.49
2022-09-21T06:48:32.000Z,997.56
2022-09-21T06:53:27.000Z,997.54
2022-09-21T06:58:21.000Z,997.57
2022-09-21T07:03:16.000Z,997.57
2022-09-21T07:08:11.000Z,997.57
2022-09-21T07:13:05.000Z,997.61
2022-09-21T07:18:00.000Z,997.61
2022-09-21T07:22:55.000Z,997.62
2022-09-21T07:27:49.000Z,997.65
2022-09-21T07:32:43.000Z,997.58
2022-09-21T07:37:38.000Z,997.66
2022-09-21T07:42:33.000Z,997.72
2022-09-21T07:47:28.000Z,997.66
2022-09-21T07:52:22.000Z,997.66
2022-09-21T07:57:20.000Z,997.58
2022-09-21T08:02:11.000Z,997.65
2022-09-21T08:07:06.000Z,997.63
2022-09-21T08:12:01.000Z,997.61
2022-09-21T08:16:56.000Z,997.60
2022-09-21T08:21:50.000Z,997.68
2022-09-21T08:26:45.000Z,997.66
2022-09-21T08:31:40.000Z,997.72
2022-09-21T08:36:34.000Z,997.66
2022-09-21T08:41:29.000Z,997.67
2022-09-21T08:46:24.000Z,997.63
2022-09-21T08:51:18.000Z,997.72
2022-09-21T08:56:12.000Z,997.74
2022-09-21T09:01:07.000Z,997.76
2022-09-21T09:06:02.000Z,997.72
2022-09-21T09:10:56.000Z,997.77
2022-09-21T09:15:51.000Z,997.73
2022-09-21T09:20:46.000Z,997.77
2022-09-21T09:25:41.000Z,997.67
2022-09-21T09:30:35.000Z,997.75
2022-09-21T09:35:30.000Z,997.72
2022-09-21T09:40:22.000Z,997.62
2022-09-21T09:45:18.000Z,997.64
2022-09-21T09:50:12.000Z,997.61
2022-09-21T09:55:08.000Z,997.67
2022-09-21T10:00:04.000Z,997.48
2022-09-21T10:04:59.000Z,997.46
2022-09-21T10:09:55.000Z,997.50
2022-09-21T10:14:50.000Z,997.50
2022-09-21T10:19:47.000Z,997.37
2022-09-21T10:24:39.000Z,997.38
2022-09-21T10:29:34.000Z,997.37
2022-09-21T10:34:28.000Z,997.36
2022-09-21T10:39:23.000Z,997.36
2022-09-21T10:44:18.000Z,997.31
2022-09-21T10:49:12.000Z,997.24
2022-09-21T10:54:07.000Z,997.22
2022-09-21T10:59:02.000Z,997.17
2022-09-21T11:03:57.000Z,997.15
2022-09-21T11:08:50.000Z,997.10
2022-09-21T11:13:43.000Z,997.21
2022-09-21T11:18:39.000Z,997.14
2022-09-21T11:23:35.000Z,997.14
2022-09-21T11:28:29.000Z,997.08
2022-09-21T11:33:23.000Z,997.00
2022-09-21T11:38:17.000Z,997.05
2022-09-21T11:43:11.000Z,996.99
2022-09-21T11:48:07.000Z,996.99
2022-09-21T11:53:02.000Z,996.89
2022-09-21T11:57:57.000Z,996.83
2022-09-21T12:02:53.000Z,996.84
2022-09-21T12:07:48.000Z,996.87
2022-09-21T12:12:43.000Z,996.75
2022-09-21T12:17:37.000Z,996.70
2022-09-21T12:22:31.000Z,996.69
2022-09-21T12:27:26.000Z,996.65
2022-09-21T12:32:21.000Z,996.66
2022-09-21T12:37:16.000Z,996.61
2022-09-21T12:42:11.000Z,996.55
2022-09-21T12:47:06.000Z,996.49
2022-09-21T12:52:01.000Z,996.38
2022-09-21T12:56:58.000Z,996.42
2022-09-21T13:01:49.000Z,996.39
2022-09-21T13:06:41.000Z,996.31
2022-09-21T13:11:36.000Z,996.31
2022-09-21T13:16:31.000Z,996.21
2022-09-21T13:21:25.000Z,996.24
2022-09-21T13:26:19.000Z,996.14
2022-09-21T13:31:12.000Z,996.22
2022-09-21T13:36:06.000Z,996.15
2022-09-21T13:41:01.000Z,996.06
2022-09-21T13:45:54.000Z,996.03
2022-09-21T13:50:47.000Z,995.89
2022-09-21T13:55:40.000Z,995.93
2022-09-21T14:00:33.000Z,995.77
2022-09-21T14:05:27.000Z,995.84
2022-09-21T14:10:22.000Z,995.92
2022-09-21T14:15:18.000Z,995.95
2022-09-21T14:20:15.000Z,995.82
2022-09-21T14:25:11.000Z,995.84
2022-09-21T14:30:06.000Z,995.80
2022-09-21T14:35:01.000Z,995.65
2022-09-21T14:39:56.000Z,995.78
2022-09-21T14:44:51.000Z,995.71
2022-09-21T14:49:48.000Z,995.61
2022-09-21T14:54:40.000Z,995.59
2022-09-21T14:59:35.000Z,995.51
2022-09-21T15:04:29.000Z,995.48
2022-09-21T15:09:24.000Z,995.42
2022-09-21T15:14:18.000Z,995.43
2022-09-21T15:19:13.000Z,995.32
2022-09-21T15:24:07.000Z,995.29
2022-09-21T15:29:02.000Z,995.27
2022-09-21T15:33:57.000Z,995.29
2022-09-21T15:38:51.000Z,995.23
2022-09-21T15:43:44.000Z,995.20
2022-09-21T15:48:38.000Z,995.25
2022-09-21T15:53:33.000Z,995.21
2022-09-21T15:58:28.000Z,995.26
2022-09-21T16:03:22.000Z,995.14
2022-09-21T16:08:16.000Z,995.12
2022-09-21T16:13:10.000Z,995.12
2022-09-21T16:18:05.000Z,995.17
2022-09-21T16:22:59.000Z,995.09
2022-09-21T16:27:54.000Z,995.15
2022-09-21T16:32:48.000Z,995.17
2022-09-21T16:37:42.000Z,995.13
2022-09-21T16:42:36.000Z,995.25
2022-09-21T16:47:29.000Z,995.24
2022-09-21T16:52:24.000Z,995.23
2022-09-21T16:57:15.000Z,995.26
2022-09-21T17:02:10.000Z,995.18
2022-09-21T17:07:04.000Z,995.28
2022-09-21T17:11:57.000Z,995.24
2022-09-21T17:16:50.000Z,995.26
2022-09-21T17:21:44.000Z,995.21
2022-09-21T17:26:38.000Z,995.20
2022-09-21T17:31:32.000Z,995.22
2022-09-21T17:36:27.000Z,995.26
2022-09-21T17:41:18.000Z,995.28
2022-09-21T17:46:13.000Z,995.28
2022-09-21T17:51:07.000Z,995.32
2022-09-21T17:56:02.000Z,995.37
2022-09-21T18:00:56.000Z,995.40
2022-09-21T18:05:53.000Z,995.47
2022-09-21T18:10:45.000Z,995.52
2022-09-21T18:15:39.000Z,995.61
2022-09-21T18:20:34.000Z,995.60
2022-09-21T18:25:28.000Z,995.65
2022-09-21T18:30:22.000Z,995.61
2022-09-21T18:35:16.000Z,995.65
2022-09-21T18:40:11.000Z,995.67
2022-09-21T18:45:05.000Z,995.63
2022-09-21T18:50:00.000Z,995.67
2022-09-21T18:54:54.000Z,995.68
2022-09-21T18:59:47.000Z,995.70
2022-09-21T19:04:42.000Z,995.76
2022-09-21T19:09:37.000Z,995.75
2022-09-21T19:14:31.000Z,995.72
2022-09-21T19:19:26.000Z,995.69
2022-09-21T19:24:20.000Z,995.70
2022-09-21T19:29:15.000Z,995.76
2022-09-21T19:34:09.000Z,995.73
2022-09-21T19:39:04.000Z,995.71
2022-09-21T19:43:59.000Z,995.71
2022-09-21T19:48:50.000Z,995.73
2022-09-21T19:53:45.000Z,995.71
2022-09-21T19:58:39.000Z,995.70
2022-09-21T20:03:33.000Z,995.73
2022-09-21T20:08:31.000Z,995.68
2022-09-21T20:13:22.000Z,995.70
2022-09-21T20:18:17.000Z,995.67
2022-09-21T20:23:12.000Z,995.74
2022-09-21T20:28:06.000Z,995.62
2022-09-21T20:33:01.000Z,995.73
2022-09-21T20:37:55.000Z,995.75
2022-09-21T20:42:49.000Z,995.67
2022-09-21T20:47:44.000Z,995.65
2022-09-21T20:52:39.000Z,995.64
2022-09-21T20:57:32.000Z,995.71
2022-09-21T21:02:27.000Z,995.62
2022-09-21T21:07:20.000Z,995.62
2022-09-21T21:12:15.000Z,995.65
2022-09-21T21:17:09.000Z,995.61
2022-09-21T21:22:04.000Z,995.66
2022-09-21T21:26:58.000Z,995.70
2022-09-21T21:31:50.000Z,995.68
2022-09-21T21:36:45.000Z,995.65
2022-09-21T21:41:39.000Z,995.69
2022-09-21T21:46:34.000Z,995.69
2022-09-21T21:51:29.000Z,995.67
2022-09-21T21:56:23.000Z,995.73
2022-09-21T22:01:18.000Z,995.68
2022-09-21T22:06:11.000Z,995.74
2022-09-21T22:11:06.000Z,995.66
2022-09-21T22:16:00.000Z,995.65
2022-09-21T22:20:55.000Z,995.67
2022-09-21T22:25:49.000Z,995.68
2022-09-21T22:30:44.000Z,995.62
2022-09-21T22:35:38.000Z,995.60
2022-09-21T22:40:33.000Z,995.61
2022-09-21T22:45:28.000Z,995.56
2022-09-21T22:50:22.000Z,995.61
2022-09-21T22:55:17.000Z,995.59
2022-09-21T23:00:11.000Z,995.54
2022-09-21T23:05:06.000Z,995.60
2022-09-21T23:10:00.000Z,995.49
2022-09-21T23:14:54.000Z,995.51
2022-09-21T23:19:48.000Z,995.50
2022-09-21T23:24:43.000Z,995.43
2022-09-21T23:29:38.000Z,995.39
2022-09-21T23:34:32.000Z,995.55
2022-09-21T23:39:27.000Z,995.44
2022-09-21T23:44:22.000Z,995.41
2022-09-21T23:49:16.000Z,995.38
2022-09-21T23:54:11.000Z,995.43
2022-09-21T23:59:06.000Z,995.50
